Hlavní strana
METAR-TAF:

METAR-TAF

Letiště :

Gamvik, Norsko

zeměpisná šířka: 71-02N, zeměpisná délka: 027-50E, výška: 1 m

Aktuální stav počasí

Zpráva byla vytvořena před 4 hodinami a 26 minutami, v 20:50 UTC
Jižní vítr 14 kt
Teplota -2°C
Vlhkost vzduchu 69%
Tlak 1008 hPa
Viditelnost 10 km a více
Žádná oblačnost pod 1500 m, nevyskytují se cumulonimby.

METAR: ENMH 172050Z 17014KT CAVOK M02/M07 Q1008

Čas: 03:16 (01:16 UTC)


TAF: chybějící

Stav a předpovědi počasí z více než 4 000 letišť (zprávy METAR a TAF).

Červené a žluté tečky na mapě představují dostupné meteorologické stanice.

Když kurzor umístíte na tečku, zobrazí se název stanice.

Pak kliknutím zobrazíte stav a předpověď počasí.

Chcete-li změnit mapu, kliknutím na zelené tlačítko se znaménkem +mapu přiblížíte, kliknutím na zelené tlačítko se znaménkem – mapu oddálíte a kliknutím na zelené šipky přejdete na sousední mapy.


METAR-TAF: